sensor_id;sensor_type;location;lat;lon;timestamp;P1;durP1;ratioP1;P2;durP2;ratioP2
18818;SDS011;9537;45.594;9.294;2023-01-08T00:00:28;47.63;;;23.13;;
18818;SDS011;9537;45.594;9.294;2023-01-08T00:01:29;44.07;;;23.70;;
18818;SDS011;9537;45.594;9.294;2023-01-08T00:02:31;43.33;;;23.00;;
18818;SDS011;9537;45.594;9.294;2023-01-08T00:03:32;48.27;;;23.83;;
18818;SDS011;9537;45.594;9.294;2023-01-08T00:04:35;48.53;;;23.13;;
18818;SDS011;9537;45.594;9.294;2023-01-08T00:05:36;43.77;;;22.77;;
18818;SDS011;9537;45.594;9.294;2023-01-08T00:06:38;48.03;;;23.30;;
18818;SDS011;9537;45.594;9.294;2023-01-08T00:07:41;44.57;;;22.70;;
18818;SDS011;9537;45.594;9.294;2023-01-08T00:08:43;41.67;;;22.37;;
18818;SDS011;9537;45.594;9.294;2023-01-08T00:09:45;45.77;;;22.93;;
18818;SDS011;9537;45.594;9.294;2023-01-08T00:10:52;42.37;;;22.63;;
18818;SDS011;9537;45.594;9.294;2023-01-08T00:11:53;45.40;;;23.00;;
18818;SDS011;9537;45.594;9.294;2023-01-08T00:12:55;40.83;;;22.07;;
18818;SDS011;9537;45.594;9.294;2023-01-08T00:13:56;45.13;;;23.97;;
18818;SDS011;9537;45.594;9.294;2023-01-08T00:14:58;49.20;;;23.93;;
18818;SDS011;9537;45.594;9.294;2023-01-08T00:16:01;49.43;;;24.53;;
18818;SDS011;9537;45.594;9.294;2023-01-08T00:17:04;41.50;;;22.77;;
18818;SDS011;9537;45.594;9.294;2023-01-08T00:18:06;42.13;;;22.63;;
18818;SDS011;9537;45.594;9.294;2023-01-08T00:19:07;43.30;;;22.60;;
18818;SDS011;9537;45.594;9.294;2023-01-08T00:20:10;43.10;;;22.63;;
18818;SDS011;9537;45.594;9.294;2023-01-08T00:21:11;44.77;;;23.60;;
18818;SDS011;9537;45.594;9.294;2023-01-08T00:22:13;47.07;;;23.77;;
18818;SDS011;9537;45.594;9.294;2023-01-08T00:23:16;43.67;;;22.53;;
18818;SDS011;9537;45.594;9.294;2023-01-08T00:24:20;46.90;;;24.13;;
18818;SDS011;9537;45.594;9.294;2023-01-08T00:25:21;47.60;;;22.90;;
18818;SDS011;9537;45.594;9.294;2023-01-08T00:26:23;40.00;;;22.10;;
18818;SDS011;9537;45.594;9.294;2023-01-08T00:27:24;46.67;;;23.67;;
18818;SDS011;9537;45.594;9.294;2023-01-08T00:28:26;45.37;;;23.93;;
18818;SDS011;9537;45.594;9.294;2023-01-08T00:29:28;48.80;;;25.20;;
18818;SDS011;9537;45.594;9.294;2023-01-08T00:30:29;47.27;;;24.57;;
18818;SDS011;9537;45.594;9.294;2023-01-08T00:31:31;45.37;;;24.07;;
18818;SDS011;9537;45.594;9.294;2023-01-08T00:32:33;46.17;;;24.53;;
18818;SDS011;9537;45.594;9.294;2023-01-08T00:33:34;45.57;;;23.70;;
18818;SDS011;9537;45.594;9.294;2023-01-08T00:34:37;47.27;;;24.00;;
18818;SDS011;9537;45.594;9.294;2023-01-08T00:35:39;48.30;;;24.90;;
18818;SDS011;9537;45.594;9.294;2023-01-08T00:36:41;47.63;;;24.87;;
18818;SDS011;9537;45.594;9.294;2023-01-08T00:37:42;47.57;;;23.77;;
18818;SDS011;9537;45.594;9.294;2023-01-08T00:38:45;44.23;;;23.37;;
18818;SDS011;9537;45.594;9.294;2023-01-08T00:39:46;45.23;;;24.13;;
18818;SDS011;9537;45.594;9.294;2023-01-08T00:40:48;39.93;;;22.07;;
18818;SDS011;9537;45.594;9.294;2023-01-08T00:41:49;46.43;;;23.13;;
18818;SDS011;9537;45.594;9.294;2023-01-08T00:42:51;47.83;;;24.03;;
18818;SDS011;9537;45.594;9.294;2023-01-08T00:43:52;40.23;;;22.03;;
18818;SDS011;9537;45.594;9.294;2023-01-08T00:44:55;41.67;;;22.73;;
18818;SDS011;9537;45.594;9.294;2023-01-08T00:45:56;42.90;;;23.30;;
18818;SDS011;9537;45.594;9.294;2023-01-08T00:46:58;47.70;;;24.00;;
18818;SDS011;9537;45.594;9.294;2023-01-08T00:47:59;44.57;;;24.00;;
18818;SDS011;9537;45.594;9.294;2023-01-08T00:49:01;43.67;;;22.07;;
18818;SDS011;9537;45.594;9.294;2023-01-08T00:50:02;48.47;;;23.70;;
18818;SDS011;9537;45.594;9.294;2023-01-08T00:51:05;43.97;;;22.30;;
18818;SDS011;9537;45.594;9.294;2023-01-08T00:52:07;46.07;;;22.90;;
18818;SDS011;9537;45.594;9.294;2023-01-08T00:53:09;50.90;;;23.53;;
18818;SDS011;9537;45.594;9.294;2023-01-08T00:54:11;47.10;;;23.17;;
18818;SDS011;9537;45.594;9.294;2023-01-08T00:55:13;43.50;;;23.47;;
18818;SDS011;9537;45.594;9.294;2023-01-08T00:56:14;43.00;;;23.13;;
18818;SDS011;9537;45.594;9.294;2023-01-08T00:57:16;41.80;;;23.20;;
18818;SDS011;9537;45.594;9.294;2023-01-08T00:58:17;45.10;;;22.37;;
18818;SDS011;9537;45.594;9.294;2023-01-08T00:59:19;43.13;;;22.33;;
18818;SDS011;9537;45.594;9.294;2023-01-08T01:00:20;37.90;;;21.37;;
18818;SDS011;9537;45.594;9.294;2023-01-08T01:01:22;45.10;;;22.50;;
18818;SDS011;9537;45.594;9.294;2023-01-08T01:02:23;43.20;;;22.73;;
18818;SDS011;9537;45.594;9.294;2023-01-08T01:03:28;42.47;;;22.37;;
18818;SDS011;9537;45.594;9.294;2023-01-08T01:04:30;44.03;;;22.47;;
18818;SDS011;9537;45.594;9.294;2023-01-08T01:05:32;43.33;;;22.77;;
18818;SDS011;9537;45.594;9.294;2023-01-08T01:06:33;45.33;;;22.93;;
18818;SDS011;9537;45.594;9.294;2023-01-08T01:07:35;40.80;;;22.63;;
18818;SDS011;9537;45.594;9.294;2023-01-08T01:08:36;44.60;;;23.30;;
18818;SDS011;9537;45.594;9.294;2023-01-08T01:09:39;42.07;;;22.43;;
18818;SDS011;9537;45.594;9.294;2023-01-08T01:10:40;45.53;;;24.00;;
18818;SDS011;9537;45.594;9.294;2023-01-08T01:11:42;46.57;;;23.23;;
18818;SDS011;9537;45.594;9.294;2023-01-08T01:12:44;44.97;;;22.63;;
18818;SDS011;9537;45.594;9.294;2023-01-08T01:13:45;40.47;;;22.07;;
18818;SDS011;9537;45.594;9.294;2023-01-08T01:14:50;42.10;;;22.97;;
18818;SDS011;9537;45.594;9.294;2023-01-08T01:15:56;39.90;;;22.47;;
18818;SDS011;9537;45.594;9.294;2023-01-08T01:16:57;36.80;;;20.90;;
18818;SDS011;9537;45.594;9.294;2023-01-08T01:17:59;46.03;;;22.67;;
18818;SDS011;9537;45.594;9.294;2023-01-08T01:19:00;42.67;;;22.67;;
18818;SDS011;9537;45.594;9.294;2023-01-08T01:20:02;42.67;;;22.97;;
18818;SDS011;9537;45.594;9.294;2023-01-08T01:21:08;41.57;;;23.17;;
18818;SDS011;9537;45.594;9.294;2023-01-08T01:22:11;40.77;;;21.33;;
18818;SDS011;9537;45.594;9.294;2023-01-08T01:23:12;44.47;;;22.40;;
18818;SDS011;9537;45.594;9.294;2023-01-08T01:24:14;44.43;;;23.00;;
18818;SDS011;9537;45.594;9.294;2023-01-08T01:25:16;43.77;;;23.20;;
18818;SDS011;9537;45.594;9.294;2023-01-08T01:26:19;45.03;;;24.50;;
18818;SDS011;9537;45.594;9.294;2023-01-08T01:27:21;44.67;;;23.33;;
18818;SDS011;9537;45.594;9.294;2023-01-08T01:28:23;46.33;;;23.20;;
18818;SDS011;9537;45.594;9.294;2023-01-08T01:29:24;43.60;;;22.47;;
18818;SDS011;9537;45.594;9.294;2023-01-08T01:30:27;45.73;;;24.00;;
18818;SDS011;9537;45.594;9.294;2023-01-08T01:31:29;43.40;;;23.43;;
18818;SDS011;9537;45.594;9.294;2023-01-08T01:32:32;46.53;;;22.90;;
18818;SDS011;9537;45.594;9.294;2023-01-08T01:33:33;47.43;;;23.93;;
18818;SDS011;9537;45.594;9.294;2023-01-08T01:34:35;43.70;;;22.53;;
18818;SDS011;9537;45.594;9.294;2023-01-08T01:35:36;41.00;;;22.03;;
18818;SDS011;9537;45.594;9.294;2023-01-08T01:36:38;42.00;;;22.60;;
18818;SDS011;9537;45.594;9.294;2023-01-08T01:37:40;48.83;;;23.37;;
18818;SDS011;9537;45.594;9.294;2023-01-08T01:38:41;46.67;;;23.73;;
18818;SDS011;9537;45.594;9.294;2023-01-08T01:39:44;46.57;;;23.70;;
18818;SDS011;9537;45.594;9.294;2023-01-08T01:40:48;44.70;;;23.60;;
18818;SDS011;9537;45.594;9.294;2023-01-08T01:41:49;49.90;;;23.70;;
18818;SDS011;9537;45.594;9.294;2023-01-08T01:42:52;47.17;;;23.20;;
18818;SDS011;9537;45.594;9.294;2023-01-08T01:43:53;44.73;;;23.47;;
18818;SDS011;9537;45.594;9.294;2023-01-08T01:44:56;49.07;;;22.93;;
18818;SDS011;9537;45.594;9.294;2023-01-08T01:45:57;43.73;;;23.67;;
18818;SDS011;9537;45.594;9.294;2023-01-08T01:46:59;42.27;;;22.80;;
18818;SDS011;9537;45.594;9.294;2023-01-08T01:48:02;42.63;;;22.00;;
18818;SDS011;9537;45.594;9.294;2023-01-08T01:49:12;48.83;;;23.00;;
18818;SDS011;9537;45.594;9.294;2023-01-08T01:50:20;43.33;;;21.67;;
18818;SDS011;9537;45.594;9.294;2023-01-08T01:51:28;41.63;;;22.50;;
18818;SDS011;9537;45.594;9.294;2023-01-08T01:52:32;44.20;;;22.13;;
18818;SDS011;9537;45.594;9.294;2023-01-08T01:53:38;41.17;;;22.30;;
18818;SDS011;9537;45.594;9.294;2023-01-08T01:54:41;43.40;;;22.63;;
18818;SDS011;9537;45.594;9.294;2023-01-08T01:55:43;44.10;;;22.20;;
18818;SDS011;9537;45.594;9.294;2023-01-08T01:56:46;45.07;;;22.17;;
18818;SDS011;9537;45.594;9.294;2023-01-08T01:57:50;43.37;;;22.10;;
18818;SDS011;9537;45.594;9.294;2023-01-08T01:58:54;40.70;;;21.20;;
18818;SDS011;9537;45.594;9.294;2023-01-08T01:59:57;43.07;;;21.30;;
18818;SDS011;9537;45.594;9.294;2023-01-08T02:01:00;40.83;;;21.13;;
18818;SDS011;9537;45.594;9.294;2023-01-08T02:02:04;39.30;;;21.13;;
18818;SDS011;9537;45.594;9.294;2023-01-08T02:03:08;38.33;;;20.63;;
18818;SDS011;9537;45.594;9.294;2023-01-08T02:04:10;41.03;;;20.67;;
18818;SDS011;9537;45.594;9.294;2023-01-08T02:05:12;35.80;;;19.67;;
18818;SDS011;9537;45.594;9.294;2023-01-08T02:06:16;40.83;;;20.30;;
18818;SDS011;9537;45.594;9.294;2023-01-08T02:07:26;42.70;;;20.77;;
18818;SDS011;9537;45.594;9.294;2023-01-08T02:08:37;41.00;;;21.67;;
18818;SDS011;9537;45.594;9.294;2023-01-08T02:09:47;41.97;;;20.67;;
18818;SDS011;9537;45.594;9.294;2023-01-08T02:10:53;45.73;;;22.57;;
18818;SDS011;9537;45.594;9.294;2023-01-08T02:12:00;43.33;;;21.90;;
18818;SDS011;9537;45.594;9.294;2023-01-08T02:13:19;40.70;;;21.13;;
18818;SDS011;9537;45.594;9.294;2023-01-08T02:14:25;37.30;;;20.27;;
18818;SDS011;9537;45.594;9.294;2023-01-08T02:15:36;38.47;;;21.00;;
18818;SDS011;9537;45.594;9.294;2023-01-08T02:16:45;37.57;;;20.63;;
18818;SDS011;9537;45.594;9.294;2023-01-08T02:17:56;44.20;;;22.90;;
18818;SDS011;9537;45.594;9.294;2023-01-08T02:19:03;37.90;;;20.63;;
18818;SDS011;9537;45.594;9.294;2023-01-08T02:20:14;37.93;;;21.07;;
18818;SDS011;9537;45.594;9.294;2023-01-08T02:21:22;41.17;;;21.57;;
18818;SDS011;9537;45.594;9.294;2023-01-08T02:22:34;42.47;;;20.80;;
18818;SDS011;9537;45.594;9.294;2023-01-08T02:23:45;31.83;;;19.20;;
18818;SDS011;9537;45.594;9.294;2023-01-08T02:24:54;39.70;;;20.93;;
18818;SDS011;9537;45.594;9.294;2023-01-08T02:26:04;39.33;;;20.30;;
18818;SDS011;9537;45.594;9.294;2023-01-08T02:27:11;41.30;;;21.77;;
18818;SDS011;9537;45.594;9.294;2023-01-08T02:28:14;38.40;;;21.47;;
18818;SDS011;9537;45.594;9.294;2023-01-08T02:29:17;41.57;;;22.23;;
18818;SDS011;9537;45.594;9.294;2023-01-08T02:30:21;41.00;;;21.23;;
18818;SDS011;9537;45.594;9.294;2023-01-08T02:31:26;40.83;;;21.77;;
18818;SDS011;9537;45.594;9.294;2023-01-08T02:32:32;39.77;;;21.07;;
18818;SDS011;9537;45.594;9.294;2023-01-08T02:33:37;37.53;;;21.07;;
18818;SDS011;9537;45.594;9.294;2023-01-08T02:34:38;39.20;;;20.07;;
18818;SDS011;9537;45.594;9.294;2023-01-08T02:35:41;34.30;;;19.27;;
18818;SDS011;9537;45.594;9.294;2023-01-08T02:36:45;39.87;;;20.90;;
18818;SDS011;9537;45.594;9.294;2023-01-08T02:37:51;39.07;;;20.83;;
18818;SDS011;9537;45.594;9.294;2023-01-08T02:38:56;41.43;;;21.23;;
18818;SDS011;9537;45.594;9.294;2023-01-08T02:40:15;34.37;;;19.80;;
18818;SDS011;9537;45.594;9.294;2023-01-08T02:41:23;37.87;;;20.03;;
18818;SDS011;9537;45.594;9.294;2023-01-08T02:42:34;35.57;;;19.73;;
18818;SDS011;9537;45.594;9.294;2023-01-08T02:43:46;38.87;;;20.27;;
18818;SDS011;9537;45.594;9.294;2023-01-08T02:44:54;38.00;;;19.97;;
18818;SDS011;9537;45.594;9.294;2023-01-08T02:46:00;36.07;;;19.90;;
18818;SDS011;9537;45.594;9.294;2023-01-08T02:47:03;35.40;;;19.67;;
18818;SDS011;9537;45.594;9.294;2023-01-08T02:48:08;38.77;;;20.33;;
18818;SDS011;9537;45.594;9.294;2023-01-08T02:49:12;35.63;;;20.30;;
18818;SDS011;9537;45.594;9.294;2023-01-08T02:50:18;35.57;;;19.77;;
18818;SDS011;9537;45.594;9.294;2023-01-08T02:51:26;35.17;;;19.47;;
18818;SDS011;9537;45.594;9.294;2023-01-08T02:52:31;38.17;;;20.47;;
18818;SDS011;9537;45.594;9.294;2023-01-08T02:53:38;39.43;;;21.37;;
18818;SDS011;9537;45.594;9.294;2023-01-08T02:54:44;30.83;;;18.37;;
18818;SDS011;9537;45.594;9.294;2023-01-08T02:55:48;37.43;;;19.83;;
18818;SDS011;9537;45.594;9.294;2023-01-08T02:56:57;36.27;;;19.87;;
18818;SDS011;9537;45.594;9.294;2023-01-08T02:58:00;35.07;;;20.03;;
18818;SDS011;9537;45.594;9.294;2023-01-08T02:59:04;39.43;;;19.47;;
18818;SDS011;9537;45.594;9.294;2023-01-08T03:00:08;37.87;;;19.10;;
18818;SDS011;9537;45.594;9.294;2023-01-08T03:01:13;33.33;;;18.87;;
18818;SDS011;9537;45.594;9.294;2023-01-08T03:02:16;34.37;;;18.77;;
18818;SDS011;9537;45.594;9.294;2023-01-08T03:03:20;34.20;;;19.33;;
18818;SDS011;9537;45.594;9.294;2023-01-08T03:04:23;33.93;;;19.10;;
18818;SDS011;9537;45.594;9.294;2023-01-08T03:05:27;35.00;;;19.37;;
18818;SDS011;9537;45.594;9.294;2023-01-08T03:06:28;37.10;;;19.83;;
18818;SDS011;9537;45.594;9.294;2023-01-08T03:07:32;32.63;;;19.77;;
18818;SDS011;9537;45.594;9.294;2023-01-08T03:08:33;36.07;;;19.70;;
18818;SDS011;9537;45.594;9.294;2023-01-08T03:09:38;38.87;;;19.53;;
18818;SDS011;9537;45.594;9.294;2023-01-08T03:10:40;39.60;;;20.90;;
18818;SDS011;9537;45.594;9.294;2023-01-08T03:11:56;35.87;;;20.33;;
18818;SDS011;9537;45.594;9.294;2023-01-08T03:13:04;34.70;;;19.40;;
18818;SDS011;9537;45.594;9.294;2023-01-08T03:14:14;38.70;;;20.10;;
18818;SDS011;9537;45.594;9.294;2023-01-08T03:15:21;35.97;;;20.43;;
18818;SDS011;9537;45.594;9.294;2023-01-08T03:16:28;38.47;;;21.23;;
18818;SDS011;9537;45.594;9.294;2023-01-08T03:17:35;39.40;;;20.97;;
18818;SDS011;9537;45.594;9.294;2023-01-08T03:18:44;35.13;;;20.17;;
18818;SDS011;9537;45.594;9.294;2023-01-08T03:19:51;41.47;;;21.07;;
18818;SDS011;9537;45.594;9.294;2023-01-08T03:20:54;40.23;;;21.80;;
18818;SDS011;9537;45.594;9.294;2023-01-08T03:21:56;40.30;;;21.57;;
18818;SDS011;9537;45.594;9.294;2023-01-08T03:22:57;40.10;;;21.13;;
18818;SDS011;9537;45.594;9.294;2023-01-08T03:24:03;37.97;;;21.07;;
18818;SDS011;9537;45.594;9.294;2023-01-08T03:25:06;40.00;;;20.10;;
18818;SDS011;9537;45.594;9.294;2023-01-08T03:26:09;38.20;;;20.33;;
18818;SDS011;9537;45.594;9.294;2023-01-08T03:27:17;38.37;;;20.83;;
18818;SDS011;9537;45.594;9.294;2023-01-08T03:28:23;36.47;;;19.87;;
18818;SDS011;9537;45.594;9.294;2023-01-08T03:29:29;37.13;;;20.00;;
18818;SDS011;9537;45.594;9.294;2023-01-08T03:30:33;32.90;;;19.43;;
18818;SDS011;9537;45.594;9.294;2023-01-08T03:31:36;37.87;;;20.53;;
18818;SDS011;9537;45.594;9.294;2023-01-08T03:32:39;35.60;;;19.77;;
18818;SDS011;9537;45.594;9.294;2023-01-08T03:33:43;38.33;;;21.03;;
18818;SDS011;9537;45.594;9.294;2023-01-08T03:34:47;39.70;;;20.27;;
18818;SDS011;9537;45.594;9.294;2023-01-08T03:35:50;33.50;;;19.47;;
18818;SDS011;9537;45.594;9.294;2023-01-08T03:36:54;32.93;;;19.07;;
18818;SDS011;9537;45.594;9.294;2023-01-08T03:37:59;35.93;;;20.30;;
18818;SDS011;9537;45.594;9.294;2023-01-08T03:39:08;37.57;;;20.53;;
18818;SDS011;9537;45.594;9.294;2023-01-08T03:40:15;33.13;;;20.20;;
18818;SDS011;9537;45.594;9.294;2023-01-08T03:41:20;40.40;;;21.23;;
18818;SDS011;9537;45.594;9.294;2023-01-08T03:42:26;32.83;;;19.20;;
18818;SDS011;9537;45.594;9.294;2023-01-08T03:43:31;37.70;;;20.67;;
18818;SDS011;9537;45.594;9.294;2023-01-08T03:44:32;35.13;;;19.80;;
18818;SDS011;9537;45.594;9.294;2023-01-08T03:45:35;33.07;;;18.63;;
18818;SDS011;9537;45.594;9.294;2023-01-08T03:46:41;33.37;;;19.83;;
18818;SDS011;9537;45.594;9.294;2023-01-08T03:47:48;35.00;;;18.93;;
18818;SDS011;9537;45.594;9.294;2023-01-08T03:48:50;35.57;;;19.60;;
18818;SDS011;9537;45.594;9.294;2023-01-08T03:49:52;33.33;;;18.90;;
18818;SDS011;9537;45.594;9.294;2023-01-08T03:50:55;32.50;;;19.23;;
18818;SDS011;9537;45.594;9.294;2023-01-08T03:51:57;33.87;;;19.87;;
18818;SDS011;9537;45.594;9.294;2023-01-08T03:52:58;35.27;;;19.33;;
18818;SDS011;9537;45.594;9.294;2023-01-08T03:54:00;32.23;;;20.47;;
18818;SDS011;9537;45.594;9.294;2023-01-08T03:55:01;37.27;;;20.27;;
18818;SDS011;9537;45.594;9.294;2023-01-08T03:56:04;34.47;;;19.80;;
18818;SDS011;9537;45.594;9.294;2023-01-08T03:57:05;33.57;;;19.37;;
18818;SDS011;9537;45.594;9.294;2023-01-08T03:58:08;32.60;;;19.63;;
18818;SDS011;9537;45.594;9.294;2023-01-08T03:59:10;36.53;;;19.73;;
18818;SDS011;9537;45.594;9.294;2023-01-08T04:00:13;32.93;;;18.60;;
18818;SDS011;9537;45.594;9.294;2023-01-08T04:01:15;33.93;;;19.13;;
18818;SDS011;9537;45.594;9.294;2023-01-08T04:02:17;34.30;;;20.00;;
18818;SDS011;9537;45.594;9.294;2023-01-08T04:03:18;36.40;;;20.40;;
18818;SDS011;9537;45.594;9.294;2023-01-08T04:04:20;32.50;;;19.73;;
18818;SDS011;9537;45.594;9.294;2023-01-08T04:05:21;34.60;;;19.67;;
18818;SDS011;9537;45.594;9.294;2023-01-08T04:06:23;35.03;;;19.40;;
18818;SDS011;9537;45.594;9.294;2023-01-08T04:07:24;31.93;;;19.33;;
18818;SDS011;9537;45.594;9.294;2023-01-08T04:08:26;35.50;;;19.80;;
18818;SDS011;9537;45.594;9.294;2023-01-08T04:09:28;33.53;;;18.57;;
18818;SDS011;9537;45.594;9.294;2023-01-08T04:10:30;30.87;;;18.03;;
18818;SDS011;9537;45.594;9.294;2023-01-08T04:11:31;32.10;;;19.03;;
18818;SDS011;9537;45.594;9.294;2023-01-08T04:12:33;31.63;;;18.97;;
18818;SDS011;9537;45.594;9.294;2023-01-08T04:13:36;34.30;;;18.90;;
18818;SDS011;9537;45.594;9.294;2023-01-08T04:14:38;35.03;;;18.93;;
18818;SDS011;9537;45.594;9.294;2023-01-08T04:15:39;32.87;;;18.47;;
18818;SDS011;9537;45.594;9.294;2023-01-08T04:16:41;32.13;;;18.83;;
18818;SDS011;9537;45.594;9.294;2023-01-08T04:17:42;30.57;;;17.80;;
18818;SDS011;9537;45.594;9.294;2023-01-08T04:18:44;36.70;;;19.57;;
18818;SDS011;9537;45.594;9.294;2023-01-08T04:19:45;31.73;;;17.70;;
18818;SDS011;9537;45.594;9.294;2023-01-08T04:20:47;34.43;;;18.87;;
18818;SDS011;9537;45.594;9.294;2023-01-08T04:21:48;34.23;;;19.13;;
18818;SDS011;9537;45.594;9.294;2023-01-08T04:22:51;29.00;;;18.17;;
18818;SDS011;9537;45.594;9.294;2023-01-08T04:23:52;31.67;;;19.03;;
18818;SDS011;9537;45.594;9.294;2023-01-08T04:24:54;30.47;;;18.37;;
18818;SDS011;9537;45.594;9.294;2023-01-08T04:25:55;32.83;;;18.23;;
18818;SDS011;9537;45.594;9.294;2023-01-08T04:26:57;30.37;;;18.73;;
18818;SDS011;9537;45.594;9.294;2023-01-08T04:27:58;28.87;;;18.43;;
18818;SDS011;9537;45.594;9.294;2023-01-08T04:29:02;31.17;;;18.43;;
18818;SDS011;9537;45.594;9.294;2023-01-08T04:30:03;29.63;;;17.97;;
18818;SDS011;9537;45.594;9.294;2023-01-08T04:31:07;31.50;;;18.73;;
18818;SDS011;9537;45.594;9.294;2023-01-08T04:32:09;29.87;;;18.13;;
18818;SDS011;9537;45.594;9.294;2023-01-08T04:33:10;31.87;;;18.47;;
18818;SDS011;9537;45.594;9.294;2023-01-08T04:34:11;29.17;;;17.90;;
18818;SDS011;9537;45.594;9.294;2023-01-08T04:35:13;30.80;;;17.97;;
18818;SDS011;9537;45.594;9.294;2023-01-08T04:36:14;30.37;;;17.93;;
18818;SDS011;9537;45.594;9.294;2023-01-08T04:37:16;33.10;;;19.50;;
18818;SDS011;9537;45.594;9.294;2023-01-08T04:38:17;30.83;;;18.30;;
18818;SDS011;9537;45.594;9.294;2023-01-08T04:39:19;30.00;;;17.93;;
18818;SDS011;9537;45.594;9.294;2023-01-08T04:40:20;30.50;;;18.37;;
18818;SDS011;9537;45.594;9.294;2023-01-08T04:41:22;31.17;;;18.03;;
18818;SDS011;9537;45.594;9.294;2023-01-08T04:42:23;27.03;;;17.17;;
18818;SDS011;9537;45.594;9.294;2023-01-08T04:43:25;29.00;;;17.87;;
18818;SDS011;9537;45.594;9.294;2023-01-08T04:44:28;28.63;;;17.83;;
18818;SDS011;9537;45.594;9.294;2023-01-08T04:45:30;34.17;;;19.10;;
18818;SDS011;9537;45.594;9.294;2023-01-08T04:46:31;30.97;;;18.70;;
18818;SDS011;9537;45.594;9.294;2023-01-08T04:47:33;31.97;;;18.97;;
18818;SDS011;9537;45.594;9.294;2023-01-08T04:48:34;31.53;;;18.60;;
18818;SDS011;9537;45.594;9.294;2023-01-08T04:49:37;30.27;;;17.90;;
18818;SDS011;9537;45.594;9.294;2023-01-08T04:50:39;33.97;;;19.27;;
18818;SDS011;9537;45.594;9.294;2023-01-08T04:51:40;35.27;;;19.43;;
18818;SDS011;9537;45.594;9.294;2023-01-08T04:52:42;30.43;;;18.10;;
18818;SDS011;9537;45.594;9.294;2023-01-08T04:53:43;26.43;;;16.97;;
18818;SDS011;9537;45.594;9.294;2023-01-08T04:54:45;32.03;;;18.93;;
18818;SDS011;9537;45.594;9.294;2023-01-08T04:55:46;32.87;;;17.83;;
18818;SDS011;9537;45.594;9.294;2023-01-08T04:56:48;28.63;;;17.10;;
18818;SDS011;9537;45.594;9.294;2023-01-08T04:57:50;34.73;;;18.40;;
18818;SDS011;9537;45.594;9.294;2023-01-08T04:58:52;31.63;;;17.93;;
18818;SDS011;9537;45.594;9.294;2023-01-08T04:59:54;32.20;;;17.80;;
18818;SDS011;9537;45.594;9.294;2023-01-08T05:00:56;31.73;;;18.43;;
18818;SDS011;9537;45.594;9.294;2023-01-08T05:01:57;35.10;;;19.00;;
18818;SDS011;9537;45.594;9.294;2023-01-08T05:03:00;33.77;;;19.70;;
18818;SDS011;9537;45.594;9.294;2023-01-08T05:04:04;28.33;;;17.27;;
18818;SDS011;9537;45.594;9.294;2023-01-08T05:05:06;32.80;;;18.33;;
18818;SDS011;9537;45.594;9.294;2023-01-08T05:06:08;32.20;;;18.63;;
18818;SDS011;9537;45.594;9.294;2023-01-08T05:07:10;34.13;;;19.40;;
18818;SDS011;9537;45.594;9.294;2023-01-08T05:08:11;31.23;;;17.87;;
18818;SDS011;9537;45.594;9.294;2023-01-08T05:09:13;30.90;;;18.47;;
18818;SDS011;9537;45.594;9.294;2023-01-08T05:10:14;32.43;;;19.17;;
18818;SDS011;9537;45.594;9.294;2023-01-08T05:11:16;31.63;;;17.43;;
18818;SDS011;9537;45.594;9.294;2023-01-08T05:12:17;31.33;;;18.07;;
18818;SDS011;9537;45.594;9.294;2023-01-08T05:13:19;32.50;;;18.80;;
18818;SDS011;9537;45.594;9.294;2023-01-08T05:14:20;33.33;;;19.27;;
18818;SDS011;9537;45.594;9.294;2023-01-08T05:15:24;29.90;;;17.10;;
18818;SDS011;9537;45.594;9.294;2023-01-08T05:16:25;31.13;;;18.90;;
18818;SDS011;9537;45.594;9.294;2023-01-08T05:17:27;30.87;;;18.23;;
18818;SDS011;9537;45.594;9.294;2023-01-08T05:18:28;31.17;;;19.07;;
18818;SDS011;9537;45.594;9.294;2023-01-08T05:19:30;34.43;;;19.03;;
18818;SDS011;9537;45.594;9.294;2023-01-08T05:20:31;32.93;;;18.87;;
18818;SDS011;9537;45.594;9.294;2023-01-08T05:21:34;34.43;;;19.07;;
18818;SDS011;9537;45.594;9.294;2023-01-08T05:22:35;31.00;;;18.07;;
18818;SDS011;9537;45.594;9.294;2023-01-08T05:23:37;27.67;;;16.73;;
18818;SDS011;9537;45.594;9.294;2023-01-08T05:24:38;29.87;;;17.90;;
18818;SDS011;9537;45.594;9.294;2023-01-08T05:25:40;27.87;;;16.63;;
18818;SDS011;9537;45.594;9.294;2023-01-08T05:26:41;30.40;;;17.70;;
18818;SDS011;9537;45.594;9.294;2023-01-08T05:27:43;28.77;;;17.30;;
18818;SDS011;9537;45.594;9.294;2023-01-08T05:28:44;27.07;;;17.40;;
18818;SDS011;9537;45.594;9.294;2023-01-08T05:29:46;30.20;;;18.23;;
18818;SDS011;9537;45.594;9.294;2023-01-08T05:30:49;30.90;;;18.17;;
18818;SDS011;9537;45.594;9.294;2023-01-08T05:31:51;32.07;;;18.20;;
18818;SDS011;9537;45.594;9.294;2023-01-08T05:32:52;32.07;;;18.37;;
18818;SDS011;9537;45.594;9.294;2023-01-08T05:33:56;32.20;;;17.93;;
18818;SDS011;9537;45.594;9.294;2023-01-08T05:34:57;31.80;;;17.37;;
18818;SDS011;9537;45.594;9.294;2023-01-08T05:35:59;33.33;;;18.40;;
18818;SDS011;9537;45.594;9.294;2023-01-08T05:37:09;30.70;;;18.33;;
18818;SDS011;9537;45.594;9.294;2023-01-08T05:38:11;32.73;;;19.77;;
18818;SDS011;9537;45.594;9.294;2023-01-08T05:39:13;31.97;;;18.23;;
18818;SDS011;9537;45.594;9.294;2023-01-08T05:40:15;31.80;;;18.03;;
18818;SDS011;9537;45.594;9.294;2023-01-08T05:41:16;33.57;;;19.00;;
18818;SDS011;9537;45.594;9.294;2023-01-08T05:42:18;33.73;;;19.73;;
18818;SDS011;9537;45.594;9.294;2023-01-08T05:43:19;32.60;;;18.33;;
18818;SDS011;9537;45.594;9.294;2023-01-08T05:44:21;32.77;;;19.13;;
18818;SDS011;9537;45.594;9.294;2023-01-08T05:45:22;34.03;;;19.37;;
18818;SDS011;9537;45.594;9.294;2023-01-08T05:46:26;36.53;;;19.77;;
18818;SDS011;9537;45.594;9.294;2023-01-08T05:47:28;32.67;;;19.57;;
18818;SDS011;9537;45.594;9.294;2023-01-08T05:48:30;33.20;;;18.10;;
18818;SDS011;9537;45.594;9.294;2023-01-08T05:49:34;31.53;;;18.47;;
18818;SDS011;9537;45.594;9.294;2023-01-08T05:50:35;34.83;;;19.73;;
18818;SDS011;9537;45.594;9.294;2023-01-08T05:51:37;34.60;;;19.93;;
18818;SDS011;9537;45.594;9.294;2023-01-08T05:52:39;33.07;;;20.03;;
18818;SDS011;9537;45.594;9.294;2023-01-08T05:53:40;36.53;;;19.47;;
18818;SDS011;9537;45.594;9.294;2023-01-08T05:54:41;37.57;;;19.93;;
18818;SDS011;9537;45.594;9.294;2023-01-08T05:55:42;34.50;;;19.30;;
18818;SDS011;9537;45.594;9.294;2023-01-08T05:56:44;32.50;;;19.17;;
18818;SDS011;9537;45.594;9.294;2023-01-08T05:57:45;34.90;;;18.93;;
18818;SDS011;9537;45.594;9.294;2023-01-08T05:58:47;34.80;;;18.67;;
18818;SDS011;9537;45.594;9.294;2023-01-08T05:59:48;33.90;;;19.40;;
18818;SDS011;9537;45.594;9.294;2023-01-08T06:00:50;36.37;;;20.30;;
18818;SDS011;9537;45.594;9.294;2023-01-08T06:01:53;38.03;;;20.93;;
18818;SDS011;9537;45.594;9.294;2023-01-08T06:02:55;34.37;;;19.40;;
18818;SDS011;9537;45.594;9.294;2023-01-08T06:03:56;33.33;;;18.50;;
18818;SDS011;9537;45.594;9.294;2023-01-08T06:04:58;35.53;;;19.27;;
18818;SDS011;9537;45.594;9.294;2023-01-08T06:05:59;31.67;;;19.13;;
18818;SDS011;9537;45.594;9.294;2023-01-08T06:07:03;35.23;;;20.20;;
18818;SDS011;9537;45.594;9.294;2023-01-08T06:08:05;32.40;;;19.13;;
18818;SDS011;9537;45.594;9.294;2023-01-08T06:09:07;34.43;;;19.80;;
18818;SDS011;9537;45.594;9.294;2023-01-08T06:10:08;30.83;;;19.13;;
18818;SDS011;9537;45.594;9.294;2023-01-08T06:11:10;31.43;;;18.63;;
18818;SDS011;9537;45.594;9.294;2023-01-08T06:12:11;34.17;;;19.60;;
18818;SDS011;9537;45.594;9.294;2023-01-08T06:13:14;34.90;;;20.00;;
18818;SDS011;9537;45.594;9.294;2023-01-08T06:14:15;35.23;;;19.37;;